createdAt,value
2023-03-02T00:02:10.635Z,54.22
2023-03-02T00:07:34.787Z,53.22
2023-03-02T00:12:58.329Z,56.20
2023-03-02T00:18:20.167Z,56.90
2023-03-02T00:23:42.039Z,57.80
2023-03-02T00:29:04.380Z,63.58
2023-03-02T00:34:26.346Z,59.00
2023-03-02T00:39:48.256Z,66.53
2023-03-02T00:45:10.228Z,66.00
2023-03-02T00:50:32.136Z,65.40
2023-03-02T00:55:54.976Z,56.70
2023-03-02T01:01:18.697Z,56.85
2023-03-02T01:06:40.779Z,60.97
2023-03-02T01:12:02.683Z,57.47
2023-03-02T01:17:24.686Z,57.95
2023-03-02T01:22:46.585Z,57.08
2023-03-02T01:28:08.468Z,61.22
2023-03-02T01:33:31.350Z,61.45
2023-03-02T01:38:53.267Z,59.85
2023-03-02T01:44:40.026Z,60.72
2023-03-02T01:50:16.558Z,65.22
2023-03-02T01:55:39.326Z,62.92
2023-03-02T02:01:01.262Z,64.65
2023-03-02T02:06:35.117Z,62.75
2023-03-02T02:11:57.220Z,64.85
2023-03-02T02:17:19.877Z,70.00
2023-03-02T02:23:11.473Z,63.95
2023-03-02T02:29:08.959Z,77.35
2023-03-02T02:34:50.731Z,85.05
2023-03-02T02:40:18.465Z,73.85
2023-03-02T02:45:41.044Z,65.07
2023-03-02T02:51:03.125Z,65.65
2023-03-02T02:56:28.460Z,75.35
2023-03-02T03:01:51.302Z,67.18
2023-03-02T03:07:19.662Z,64.28
2023-03-02T03:12:42.531Z,60.50
2023-03-02T03:18:04.474Z,61.17
2023-03-02T03:23:26.632Z,55.55
2023-03-02T03:28:48.496Z,50.72
2023-03-02T03:34:11.033Z,50.35
2023-03-02T03:39:33.313Z,53.17
2023-03-02T03:44:55.148Z,57.03
2023-03-02T03:50:17.081Z,50.17
2023-03-02T03:55:39.020Z,48.13
2023-03-02T04:01:00.852Z,47.15
2023-03-02T04:06:22.674Z,45.63
2023-03-02T04:11:47.219Z,52.60
2023-03-02T04:17:09.107Z,54.60
2023-03-02T04:22:30.960Z,57.30
2023-03-02T04:27:53.604Z,53.63
2023-03-02T04:33:15.420Z,54.03
2023-03-02T04:38:37.262Z,54.03
2023-03-02T04:43:59.275Z,52.17
2023-03-02T04:49:21.182Z,51.47
2023-03-02T04:54:42.983Z,55.42
2023-03-02T05:00:05.348Z,52.72
2023-03-02T05:05:27.803Z,53.20
2023-03-02T05:10:49.645Z,50.65
2023-03-02T05:16:11.632Z,44.08
2023-03-02T05:21:33.988Z,48.00
2023-03-02T05:26:55.871Z,44.65
2023-03-02T05:32:17.821Z,43.15
2023-03-02T05:37:40.006Z,41.58
2023-03-02T05:43:02.349Z,41.25
2023-03-02T05:48:24.212Z,45.17
2023-03-02T05:53:46.046Z,40.42
2023-03-02T05:59:08.550Z,43.13
2023-03-02T06:04:30.585Z,47.63
2023-03-02T06:09:52.476Z,43.28
2023-03-02T06:15:14.335Z,41.20
2023-03-02T06:20:36.166Z,46.03
2023-03-02T06:25:58.632Z,49.28
2023-03-02T06:31:21.241Z,49.25
2023-03-02T06:36:43.196Z,46.90
2023-03-02T06:42:05.042Z,48.42
2023-03-02T06:47:26.892Z,51.70
2023-03-02T06:52:48.833Z,49.80
2023-03-02T06:58:10.668Z,51.38
2023-03-02T07:03:32.565Z,48.55
2023-03-02T07:08:54.582Z,49.58
2023-03-02T07:14:16.448Z,43.13
2023-03-02T07:19:40.648Z,47.97
2023-03-02T07:25:03.028Z,45.42
2023-03-02T07:30:25.729Z,40.33
2023-03-02T07:35:48.089Z,39.47
2023-03-02T07:41:10.441Z,36.50
2023-03-02T07:46:32.362Z,44.55
2023-03-02T07:51:54.302Z,45.30
2023-03-02T07:57:16.294Z,49.35
2023-03-02T08:02:40.052Z,43.42
2023-03-02T08:08:02.015Z,45.50
2023-03-02T08:13:23.837Z,49.35
2023-03-02T08:18:45.713Z,40.67
2023-03-02T08:24:07.830Z,40.30
2023-03-02T08:29:30.666Z,36.70
2023-03-02T08:34:52.555Z,37.63
2023-03-02T08:40:14.658Z,34.80
2023-03-02T08:45:36.567Z,33.42
2023-03-02T08:51:07.710Z,30.90
2023-03-02T08:56:33.182Z,23.15
2023-03-02T09:01:55.287Z,19.50
2023-03-02T09:07:17.219Z,20.20
2023-03-02T09:12:39.157Z,20.73
2023-03-02T09:18:01.048Z,7.60
2023-03-02T09:23:23.151Z,14.20
2023-03-02T09:28:45.011Z,11.60
2023-03-02T09:34:06.923Z,11.85
2023-03-02T09:39:28.808Z,13.05
2023-03-02T09:45:00.144Z,12.07
2023-03-02T09:50:34.833Z,18.70
2023-03-02T09:55:59.001Z,17.48
2023-03-02T10:01:32.675Z,14.70
2023-03-02T10:07:19.966Z,18.83
2023-03-02T10:13:19.085Z,15.23
2023-03-02T10:19:05.609Z,15.30
2023-03-02T10:24:45.792Z,19.77
2023-03-02T10:30:14.606Z,23.48
2023-03-02T10:35:37.980Z,20.10
2023-03-02T10:41:05.862Z,13.88
2023-03-02T10:46:39.655Z,20.85
2023-03-02T10:52:03.467Z,18.00
2023-03-02T10:57:34.425Z,19.05
2023-03-02T11:03:01.908Z,18.90
2023-03-02T11:08:28.559Z,16.92
2023-03-02T11:13:50.504Z,16.52
2023-03-02T11:19:17.590Z,17.15
2023-03-02T11:31:14.208Z,8.70
2023-03-02T11:36:44.237Z,11.27
2023-03-02T11:42:19.267Z,20.88
2023-03-02T11:47:57.651Z,14.15
2023-03-02T11:53:30.306Z,15.85
2023-03-02T11:58:59.691Z,15.73
2023-03-02T12:04:27.563Z,17.50
2023-03-02T12:10:04.517Z,16.92
2023-03-02T12:15:42.938Z,15.40
2023-03-02T12:21:23.259Z,15.57
2023-03-02T12:26:45.239Z,13.13
2023-03-02T12:32:13.892Z,13.18
2023-03-02T12:37:53.640Z,12.85
2023-03-02T12:43:35.100Z,14.23
2023-03-02T12:49:14.099Z,16.70
2023-03-02T12:54:36.170Z,14.00
2023-03-02T13:00:01.442Z,12.13
2023-03-02T13:05:28.810Z,13.52
2023-03-02T13:10:53.780Z,16.42
2023-03-02T13:16:41.074Z,15.38
2023-03-02T13:22:04.253Z,15.80
2023-03-02T13:27:26.897Z,16.15
2023-03-02T13:32:49.113Z,16.48
2023-03-02T13:38:17.600Z,19.92
2023-03-02T13:43:39.783Z,16.17
2023-03-02T13:49:10.376Z,14.63
2023-03-02T13:54:37.656Z,18.08
2023-03-02T14:05:24.000Z,21.35
2023-03-02T14:10:46.981Z,15.63
2023-03-02T14:16:16.504Z,15.57
2023-03-02T14:21:38.541Z,16.73
2023-03-02T14:27:00.727Z,14.43
2023-03-02T14:32:22.599Z,14.45
2023-03-02T14:37:48.473Z,16.50
2023-03-02T14:43:10.928Z,11.40
2023-03-02T14:48:32.787Z,15.80
2023-03-02T14:53:58.010Z,16.88
2023-03-02T14:59:19.955Z,16.33
2023-03-02T15:04:41.849Z,16.45
2023-03-02T15:10:04.068Z,15.18
2023-03-02T15:15:25.913Z,14.60
2023-03-02T15:20:47.790Z,16.33
2023-03-02T15:26:10.564Z,15.75
2023-03-02T15:31:32.773Z,18.75
2023-03-02T15:36:54.875Z,16.75
2023-03-02T15:42:16.694Z,19.17
2023-03-02T15:47:38.538Z,17.67
2023-03-02T15:53:00.423Z,16.65
2023-03-02T15:58:22.642Z,15.98
2023-03-02T16:03:44.715Z,17.77
2023-03-02T16:09:07.052Z,15.43
2023-03-02T16:14:28.937Z,18.00
2023-03-02T16:19:50.759Z,19.00
2023-03-02T16:25:12.623Z,21.73
2023-03-02T16:30:34.794Z,17.90
2023-03-02T16:35:56.623Z,18.65
2023-03-02T16:41:23.727Z,25.17
2023-03-02T16:46:45.753Z,24.73
2023-03-02T16:52:07.584Z,23.70
2023-03-02T16:57:29.440Z,23.65
2023-03-02T17:02:51.838Z,20.50
2023-03-02T17:08:15.372Z,23.20
2023-03-02T17:13:37.415Z,28.25
2023-03-02T17:18:59.983Z,30.48
2023-03-02T17:24:21.886Z,45.65
2023-03-02T17:29:43.799Z,28.42
2023-03-02T17:35:07.397Z,34.15
2023-03-02T17:40:29.330Z,28.83
2023-03-02T17:45:51.229Z,29.48
2023-03-02T17:51:13.267Z,26.80
2023-03-02T17:56:35.209Z,32.22
2023-03-02T18:01:57.091Z,29.30
2023-03-02T18:07:19.054Z,39.15
2023-03-02T18:12:41.025Z,38.78
2023-03-02T18:18:03.198Z,40.33
2023-03-02T18:23:25.262Z,39.13
2023-03-02T18:28:47.234Z,32.30
2023-03-02T18:34:09.222Z,34.42
2023-03-02T18:39:31.179Z,36.80
2023-03-02T18:44:53.283Z,29.00
2023-03-02T18:50:15.187Z,35.55
2023-03-02T18:55:37.130Z,38.47
2023-03-02T19:00:58.980Z,42.20
2023-03-02T19:06:22.070Z,43.15
2023-03-02T19:11:43.985Z,41.28
2023-03-02T19:17:05.830Z,39.15
2023-03-02T19:22:27.693Z,42.58
2023-03-02T19:27:49.694Z,44.88
2023-03-02T19:33:11.572Z,38.55
2023-03-02T19:38:33.445Z,39.08
2023-03-02T19:43:55.275Z,36.33
2023-03-02T19:49:17.395Z,34.70
2023-03-02T19:54:39.216Z,43.95
2023-03-02T20:00:01.037Z,39.20
2023-03-02T20:05:23.209Z,44.45
2023-03-02T20:10:46.555Z,47.08
2023-03-02T20:16:08.835Z,39.67
2023-03-02T20:21:31.678Z,43.42
2023-03-02T20:26:53.552Z,42.97
2023-03-02T20:32:16.013Z,43.63
2023-03-02T20:37:38.574Z,48.20
2023-03-02T20:43:00.463Z,45.22
2023-03-02T20:48:22.527Z,43.38
2023-03-02T20:53:44.420Z,45.55
2023-03-02T20:59:06.328Z,42.13
2023-03-02T21:04:28.274Z,50.72
2023-03-02T21:09:50.207Z,53.45
2023-03-02T21:15:12.384Z,52.83
2023-03-02T21:20:34.732Z,55.05
2023-03-02T21:25:56.691Z,56.28
2023-03-02T21:31:18.628Z,55.28
2023-03-02T21:36:41.961Z,58.08
2023-03-02T21:42:03.966Z,57.85
2023-03-02T21:47:25.811Z,58.05
2023-03-02T21:52:47.935Z,61.90
2023-03-02T21:58:10.469Z,60.15
2023-03-02T22:03:32.319Z,60.03
2023-03-02T22:08:55.122Z,61.22
2023-03-02T22:14:17.775Z,61.05
2023-03-02T22:19:43.031Z,57.28
2023-03-02T22:25:14.516Z,59.58
2023-03-02T22:30:36.340Z,59.78
2023-03-02T22:36:11.655Z,59.20
2023-03-02T22:41:33.636Z,59.47
2023-03-02T22:46:56.096Z,52.53
2023-03-02T22:52:23.812Z,57.35
2023-03-02T22:57:45.704Z,58.78
2023-03-02T23:03:44.288Z,51.05
2023-03-02T23:09:06.690Z,55.13
2023-03-02T23:14:52.939Z,61.75
2023-03-02T23:20:16.179Z,54.67
2023-03-02T23:25:38.053Z,60.53
2023-03-02T23:30:59.901Z,55.70
2023-03-02T23:36:21.813Z,63.22
2023-03-02T23:41:43.706Z,62.58
2023-03-02T23:47:05.647Z,59.30
2023-03-02T23:52:27.490Z,57.78
2023-03-02T23:57:49.389Z,59.85
